sensor_id;sensor_type;location;lat;lon;timestamp;P1;durP1;ratioP1;P2;durP2;ratioP2
32946;SDS011;54465;51.230;22.504;2023-09-19T00:04:23;6.13;;;4.78;;
32946;SDS011;54465;51.230;22.504;2023-09-19T00:09:29;7.55;;;4.45;;
32946;SDS011;54465;51.230;22.504;2023-09-19T00:14:30;7.15;;;4.63;;
32946;SDS011;54465;51.230;22.504;2023-09-19T00:19:30;7.45;;;5.00;;
32946;SDS011;54465;51.230;22.504;2023-09-19T00:24:31;6.32;;;4.65;;
32946;SDS011;54465;51.230;22.504;2023-09-19T00:29:31;5.60;;;5.00;;
32946;SDS011;54465;51.230;22.504;2023-09-19T00:34:33;6.00;;;4.50;;
32946;SDS011;54465;51.230;22.504;2023-09-19T00:39:34;7.53;;;4.78;;
32946;SDS011;54465;51.230;22.504;2023-09-19T00:44:35;6.65;;;4.72;;
32946;SDS011;54465;51.230;22.504;2023-09-19T00:49:37;7.22;;;4.38;;
32946;SDS011;54465;51.230;22.504;2023-09-19T00:54:38;7.95;;;4.95;;
32946;SDS011;54465;51.230;22.504;2023-09-19T00:59:39;6.70;;;5.15;;
32946;SDS011;54465;51.230;22.504;2023-09-19T01:04:40;5.82;;;4.95;;
32946;SDS011;54465;51.230;22.504;2023-09-19T01:09:41;8.52;;;4.88;;
32946;SDS011;54465;51.230;22.504;2023-09-19T01:14:44;8.55;;;5.70;;
32946;SDS011;54465;51.230;22.504;2023-09-19T01:30:58;7.03;;;5.38;;
32946;SDS011;54465;51.230;22.504;2023-09-19T01:36:01;6.80;;;5.38;;
32946;SDS011;54465;51.230;22.504;2023-09-19T01:41:03;9.48;;;5.78;;
32946;SDS011;54465;51.230;22.504;2023-09-19T01:51:34;7.18;;;4.80;;
32946;SDS011;54465;51.230;22.504;2023-09-19T01:56:54;7.13;;;5.35;;
32946;SDS011;54465;51.230;22.504;2023-09-19T02:02:01;11.07;;;5.38;;
32946;SDS011;54465;51.230;22.504;2023-09-19T02:07:03;10.27;;;5.88;;
32946;SDS011;54465;51.230;22.504;2023-09-19T02:12:05;10.52;;;5.72;;
32946;SDS011;54465;51.230;22.504;2023-09-19T02:17:06;6.78;;;4.93;;
32946;SDS011;54465;51.230;22.504;2023-09-19T02:22:07;9.25;;;5.93;;
32946;SDS011;54465;51.230;22.504;2023-09-19T02:27:10;8.63;;;5.80;;
32946;SDS011;54465;51.230;22.504;2023-09-19T02:32:12;8.95;;;5.93;;
32946;SDS011;54465;51.230;22.504;2023-09-19T02:37:14;8.32;;;6.00;;
32946;SDS011;54465;51.230;22.504;2023-09-19T02:42:16;8.15;;;6.22;;
32946;SDS011;54465;51.230;22.504;2023-09-19T02:47:16;6.63;;;5.93;;
32946;SDS011;54465;51.230;22.504;2023-09-19T02:52:17;7.78;;;5.45;;
32946;SDS011;54465;51.230;22.504;2023-09-19T02:57:18;6.97;;;5.43;;
32946;SDS011;54465;51.230;22.504;2023-09-19T03:02:19;7.38;;;5.80;;
32946;SDS011;54465;51.230;22.504;2023-09-19T03:07:20;8.52;;;5.43;;
32946;SDS011;54465;51.230;22.504;2023-09-19T03:12:21;7.80;;;5.60;;
32946;SDS011;54465;51.230;22.504;2023-09-19T03:17:21;7.47;;;5.13;;
32946;SDS011;54465;51.230;22.504;2023-09-19T03:22:22;7.55;;;5.60;;
32946;SDS011;54465;51.230;22.504;2023-09-19T03:27:23;7.10;;;5.25;;
32946;SDS011;54465;51.230;22.504;2023-09-19T03:32:26;7.53;;;6.00;;
32946;SDS011;54465;51.230;22.504;2023-09-19T03:37:26;7.25;;;5.50;;
32946;SDS011;54465;51.230;22.504;2023-09-19T03:42:27;10.73;;;6.50;;
32946;SDS011;54465;51.230;22.504;2023-09-19T03:47:28;9.18;;;5.68;;
32946;SDS011;54465;51.230;22.504;2023-09-19T03:52:30;7.32;;;5.68;;
32946;SDS011;54465;51.230;22.504;2023-09-19T03:57:31;8.13;;;5.15;;
32946;SDS011;54465;51.230;22.504;2023-09-19T04:02:31;6.53;;;5.85;;
32946;SDS011;54465;51.230;22.504;2023-09-19T04:07:33;8.13;;;5.00;;
32946;SDS011;54465;51.230;22.504;2023-09-19T04:12:34;7.28;;;5.15;;
32946;SDS011;54465;51.230;22.504;2023-09-19T04:17:35;6.32;;;5.25;;
32946;SDS011;54465;51.230;22.504;2023-09-19T04:22:35;7.18;;;4.68;;
32946;SDS011;54465;51.230;22.504;2023-09-19T04:27:36;7.82;;;5.53;;
32946;SDS011;54465;51.230;22.504;2023-09-19T04:32:38;8.88;;;5.00;;
32946;SDS011;54465;51.230;22.504;2023-09-19T04:37:41;7.03;;;4.85;;
32946;SDS011;54465;51.230;22.504;2023-09-19T04:42:42;7.95;;;5.45;;
32946;SDS011;54465;51.230;22.504;2023-09-19T04:47:42;9.88;;;5.25;;
32946;SDS011;54465;51.230;22.504;2023-09-19T04:52:44;7.25;;;5.35;;
32946;SDS011;54465;51.230;22.504;2023-09-19T04:57:48;5.78;;;5.07;;
32946;SDS011;54465;51.230;22.504;2023-09-19T05:02:50;9.07;;;5.22;;
32946;SDS011;54465;51.230;22.504;2023-09-19T05:07:51;5.28;;;4.72;;
32946;SDS011;54465;51.230;22.504;2023-09-19T05:12:54;5.85;;;4.80;;
32946;SDS011;54465;51.230;22.504;2023-09-19T05:17:55;6.07;;;4.75;;
32946;SDS011;54465;51.230;22.504;2023-09-19T05:22:59;6.28;;;5.00;;
32946;SDS011;54465;51.230;22.504;2023-09-19T05:28:02;8.68;;;5.68;;
32946;SDS011;54465;51.230;22.504;2023-09-19T05:33:05;7.43;;;5.20;;
32946;SDS011;54465;51.230;22.504;2023-09-19T05:38:06;7.88;;;4.65;;
32946;SDS011;54465;51.230;22.504;2023-09-19T05:43:09;6.43;;;5.20;;
32946;SDS011;54465;51.230;22.504;2023-09-19T05:48:10;8.10;;;5.20;;
32946;SDS011;54465;51.230;22.504;2023-09-19T05:53:16;8.95;;;4.93;;
32946;SDS011;54465;51.230;22.504;2023-09-19T05:58:17;7.55;;;4.53;;
32946;SDS011;54465;51.230;22.504;2023-09-19T06:03:20;12.38;;;5.50;;
32946;SDS011;54465;51.230;22.504;2023-09-19T06:08:20;5.95;;;4.60;;
32946;SDS011;54465;51.230;22.504;2023-09-19T06:13:21;6.60;;;4.95;;
32946;SDS011;54465;51.230;22.504;2023-09-19T06:18:21;5.43;;;3.90;;
32946;SDS011;54465;51.230;22.504;2023-09-19T06:23:26;5.30;;;4.65;;
32946;SDS011;54465;51.230;22.504;2023-09-19T06:28:29;6.40;;;5.03;;
32946;SDS011;54465;51.230;22.504;2023-09-19T06:33:29;5.13;;;4.63;;
32946;SDS011;54465;51.230;22.504;2023-09-19T06:38:31;8.10;;;4.85;;
32946;SDS011;54465;51.230;22.504;2023-09-19T06:43:34;7.13;;;5.10;;
32946;SDS011;54465;51.230;22.504;2023-09-19T06:48:35;5.55;;;5.00;;
32946;SDS011;54465;51.230;22.504;2023-09-19T06:53:36;5.72;;;4.28;;
32946;SDS011;54465;51.230;22.504;2023-09-19T06:58:36;5.57;;;4.35;;
32946;SDS011;54465;51.230;22.504;2023-09-19T07:03:38;6.82;;;5.10;;
32946;SDS011;54465;51.230;22.504;2023-09-19T07:08:40;10.48;;;5.00;;
32946;SDS011;54465;51.230;22.504;2023-09-19T07:13:40;6.43;;;4.90;;
32946;SDS011;54465;51.230;22.504;2023-09-19T07:18:41;5.65;;;4.60;;
32946;SDS011;54465;51.230;22.504;2023-09-19T07:23:44;7.40;;;4.55;;
32946;SDS011;54465;51.230;22.504;2023-09-19T07:28:45;6.72;;;4.28;;
32946;SDS011;54465;51.230;22.504;2023-09-19T07:33:45;5.43;;;4.68;;
32946;SDS011;54465;51.230;22.504;2023-09-19T07:38:46;6.88;;;5.00;;
32946;SDS011;54465;51.230;22.504;2023-09-19T07:43:48;6.80;;;4.80;;
32946;SDS011;54465;51.230;22.504;2023-09-19T07:48:48;6.82;;;4.32;;
32946;SDS011;54465;51.230;22.504;2023-09-19T07:53:49;8.95;;;5.30;;
32946;SDS011;54465;51.230;22.504;2023-09-19T07:58:49;6.20;;;4.45;;
32946;SDS011;54465;51.230;22.504;2023-09-19T08:03:50;9.98;;;5.70;;
32946;SDS011;54465;51.230;22.504;2023-09-19T08:08:51;5.97;;;5.03;;
32946;SDS011;54465;51.230;22.504;2023-09-19T08:13:55;4.85;;;4.38;;
32946;SDS011;54465;51.230;22.504;2023-09-19T08:18:55;5.30;;;4.80;;
32946;SDS011;54465;51.230;22.504;2023-09-19T08:23:56;5.25;;;4.50;;
32946;SDS011;54465;51.230;22.504;2023-09-19T08:28:57;6.50;;;5.07;;
32946;SDS011;54465;51.230;22.504;2023-09-19T08:33:57;8.55;;;5.68;;
32946;SDS011;54465;51.230;22.504;2023-09-19T08:38:59;5.38;;;4.88;;
32946;SDS011;54465;51.230;22.504;2023-09-19T08:44:00;6.07;;;4.80;;
32946;SDS011;54465;51.230;22.504;2023-09-19T08:49:04;5.80;;;5.20;;
32946;SDS011;54465;51.230;22.504;2023-09-19T08:54:06;7.07;;;5.82;;
32946;SDS011;54465;51.230;22.504;2023-09-19T08:59:07;6.43;;;4.80;;
32946;SDS011;54465;51.230;22.504;2023-09-19T09:04:08;8.23;;;5.22;;
32946;SDS011;54465;51.230;22.504;2023-09-19T09:09:09;6.05;;;5.43;;
32946;SDS011;54465;51.230;22.504;2023-09-19T09:14:10;9.05;;;5.70;;
32946;SDS011;54465;51.230;22.504;2023-09-19T09:19:12;6.65;;;5.88;;
32946;SDS011;54465;51.230;22.504;2023-09-19T09:29:51;9.73;;;6.00;;
32946;SDS011;54465;51.230;22.504;2023-09-19T09:34:54;7.53;;;5.82;;
32946;SDS011;54465;51.230;22.504;2023-09-19T09:39:59;8.57;;;6.03;;
32946;SDS011;54465;51.230;22.504;2023-09-19T09:45:22;7.90;;;6.32;;
32946;SDS011;54465;51.230;22.504;2023-09-19T09:50:36;8.30;;;6.95;;
32946;SDS011;54465;51.230;22.504;2023-09-19T09:56:01;9.23;;;6.72;;
32946;SDS011;54465;51.230;22.504;2023-09-19T10:01:08;7.45;;;6.57;;
32946;SDS011;54465;51.230;22.504;2023-09-19T10:06:09;10.35;;;6.90;;
32946;SDS011;54465;51.230;22.504;2023-09-19T10:11:25;8.80;;;6.87;;
32946;SDS011;54465;51.230;22.504;2023-09-19T10:16:30;7.97;;;6.60;;
32946;SDS011;54465;51.230;22.504;2023-09-19T10:21:34;12.65;;;7.80;;
32946;SDS011;54465;51.230;22.504;2023-09-19T10:26:36;9.93;;;7.28;;
32946;SDS011;54465;51.230;22.504;2023-09-19T10:31:39;13.48;;;9.18;;
32946;SDS011;54465;51.230;22.504;2023-09-19T10:36:44;11.93;;;8.63;;
32946;SDS011;54465;51.230;22.504;2023-09-19T10:41:51;11.27;;;8.20;;
32946;SDS011;54465;51.230;22.504;2023-09-19T10:46:54;10.32;;;6.95;;
32946;SDS011;54465;51.230;22.504;2023-09-19T10:51:55;11.85;;;7.90;;
32946;SDS011;54465;51.230;22.504;2023-09-19T10:56:58;12.50;;;6.68;;
32946;SDS011;54465;51.230;22.504;2023-09-19T11:02:07;8.48;;;6.45;;
32946;SDS011;54465;51.230;22.504;2023-09-19T11:17:45;6.70;;;5.35;;
32946;SDS011;54465;51.230;22.504;2023-09-19T11:43:49;8.40;;;6.35;;
32946;SDS011;54465;51.230;22.504;2023-09-19T11:48:51;7.25;;;6.28;;
32946;SDS011;54465;51.230;22.504;2023-09-19T11:53:56;8.25;;;6.57;;
32946;SDS011;54465;51.230;22.504;2023-09-19T11:58:59;9.52;;;6.72;;
32946;SDS011;54465;51.230;22.504;2023-09-19T12:04:01;7.85;;;6.40;;
32946;SDS011;54465;51.230;22.504;2023-09-19T12:09:04;8.35;;;7.18;;
32946;SDS011;54465;51.230;22.504;2023-09-19T12:14:10;9.07;;;7.27;;
32946;SDS011;54465;51.230;22.504;2023-09-19T12:19:17;10.57;;;7.72;;
32946;SDS011;54465;51.230;22.504;2023-09-19T12:24:22;10.63;;;6.70;;
32946;SDS011;54465;51.230;22.504;2023-09-19T12:29:22;10.18;;;7.60;;
32946;SDS011;54465;51.230;22.504;2023-09-19T12:39:29;8.80;;;7.57;;
32946;SDS011;54465;51.230;22.504;2023-09-19T12:44:31;9.23;;;6.82;;
32946;SDS011;54465;51.230;22.504;2023-09-19T12:49:35;8.35;;;6.47;;
32946;SDS011;54465;51.230;22.504;2023-09-19T12:54:39;8.10;;;7.30;;
32946;SDS011;54465;51.230;22.504;2023-09-19T12:59:40;8.77;;;7.32;;
32946;SDS011;54465;51.230;22.504;2023-09-19T13:04:42;7.40;;;6.60;;
32946;SDS011;54465;51.230;22.504;2023-09-19T13:10:04;7.93;;;5.97;;
32946;SDS011;54465;51.230;22.504;2023-09-19T13:15:08;8.10;;;6.18;;
32946;SDS011;54465;51.230;22.504;2023-09-19T13:20:23;6.20;;;5.40;;
32946;SDS011;54465;51.230;22.504;2023-09-19T13:25:32;6.82;;;5.30;;
32946;SDS011;54465;51.230;22.504;2023-09-19T13:30:33;5.28;;;4.78;;
32946;SDS011;54465;51.230;22.504;2023-09-19T13:35:40;5.20;;;4.63;;
32946;SDS011;54465;51.230;22.504;2023-09-19T13:40:41;5.65;;;4.80;;
32946;SDS011;54465;51.230;22.504;2023-09-19T13:45:44;7.03;;;5.38;;
32946;SDS011;54465;51.230;22.504;2023-09-19T13:50:44;5.75;;;5.25;;
32946;SDS011;54465;51.230;22.504;2023-09-19T13:55:45;7.70;;;5.75;;
32946;SDS011;54465;51.230;22.504;2023-09-19T14:00:46;5.53;;;5.03;;
32946;SDS011;54465;51.230;22.504;2023-09-19T14:05:47;5.70;;;5.20;;
32946;SDS011;54465;51.230;22.504;2023-09-19T14:10:48;6.80;;;6.10;;
32946;SDS011;54465;51.230;22.504;2023-09-19T14:15:48;7.03;;;5.57;;
32946;SDS011;54465;51.230;22.504;2023-09-19T14:20:49;6.32;;;5.72;;
32946;SDS011;54465;51.230;22.504;2023-09-19T14:25:53;6.45;;;5.85;;
32946;SDS011;54465;51.230;22.504;2023-09-19T14:30:54;6.30;;;5.63;;
32946;SDS011;54465;51.230;22.504;2023-09-19T14:35:54;9.90;;;5.43;;
32946;SDS011;54465;51.230;22.504;2023-09-19T14:41:07;5.75;;;5.18;;
32946;SDS011;54465;51.230;22.504;2023-09-19T14:46:07;5.97;;;5.38;;
32946;SDS011;54465;51.230;22.504;2023-09-19T14:51:09;6.78;;;5.32;;
32946;SDS011;54465;51.230;22.504;2023-09-19T14:56:12;6.07;;;5.30;;
32946;SDS011;54465;51.230;22.504;2023-09-19T15:01:13;6.15;;;5.55;;
32946;SDS011;54465;51.230;22.504;2023-09-19T15:06:14;7.07;;;5.85;;
32946;SDS011;54465;51.230;22.504;2023-09-19T15:11:15;7.07;;;6.18;;
32946;SDS011;54465;51.230;22.504;2023-09-19T15:16:18;6.97;;;6.28;;
32946;SDS011;54465;51.230;22.504;2023-09-19T15:21:19;8.23;;;7.43;;
32946;SDS011;54465;51.230;22.504;2023-09-19T15:26:20;8.70;;;7.88;;
32946;SDS011;54465;51.230;22.504;2023-09-19T15:31:21;9.55;;;8.50;;
32946;SDS011;54465;51.230;22.504;2023-09-19T15:36:22;8.60;;;7.38;;
32946;SDS011;54465;51.230;22.504;2023-09-19T15:41:23;7.72;;;5.90;;
32946;SDS011;54465;51.230;22.504;2023-09-19T15:46:24;7.13;;;3.95;;
32946;SDS011;54465;51.230;22.504;2023-09-19T15:51:27;4.28;;;3.10;;
32946;SDS011;54465;51.230;22.504;2023-09-19T15:56:27;6.75;;;2.92;;
32946;SDS011;54465;51.230;22.504;2023-09-19T16:01:28;6.10;;;2.67;;
32946;SDS011;54465;51.230;22.504;2023-09-19T16:06:29;3.53;;;2.75;;
32946;SDS011;54465;51.230;22.504;2023-09-19T16:11:34;3.67;;;3.20;;
32946;SDS011;54465;51.230;22.504;2023-09-19T16:16:35;5.65;;;3.50;;
32946;SDS011;54465;51.230;22.504;2023-09-19T16:21:37;7.90;;;3.70;;
32946;SDS011;54465;51.230;22.504;2023-09-19T16:26:37;3.47;;;2.83;;
32946;SDS011;54465;51.230;22.504;2023-09-19T16:31:38;4.25;;;2.75;;
32946;SDS011;54465;51.230;22.504;2023-09-19T16:36:38;3.40;;;2.80;;
32946;SDS011;54465;51.230;22.504;2023-09-19T16:41:39;8.15;;;3.13;;
32946;SDS011;54465;51.230;22.504;2023-09-19T16:46:40;5.35;;;3.35;;
32946;SDS011;54465;51.230;22.504;2023-09-19T16:51:41;6.82;;;4.55;;
32946;SDS011;54465;51.230;22.504;2023-09-19T16:56:44;8.27;;;6.88;;
32946;SDS011;54465;51.230;22.504;2023-09-19T17:01:44;13.80;;;8.82;;
32946;SDS011;54465;51.230;22.504;2023-09-19T17:06:45;17.85;;;10.55;;
32946;SDS011;54465;51.230;22.504;2023-09-19T17:11:46;20.73;;;13.38;;
32946;SDS011;54465;51.230;22.504;2023-09-19T17:16:48;27.73;;;17.17;;
32946;SDS011;54465;51.230;22.504;2023-09-19T17:21:49;44.42;;;22.95;;
32946;SDS011;54465;51.230;22.504;2023-09-19T17:26:49;50.72;;;27.15;;
32946;SDS011;54465;51.230;22.504;2023-09-19T17:31:50;51.85;;;28.85;;
32946;SDS011;54465;51.230;22.504;2023-09-19T17:36:50;52.00;;;27.63;;
32946;SDS011;54465;51.230;22.504;2023-09-19T17:41:51;52.00;;;27.67;;
32946;SDS011;54465;51.230;22.504;2023-09-19T17:46:52;47.03;;;25.77;;
32946;SDS011;54465;51.230;22.504;2023-09-19T17:51:52;38.63;;;22.58;;
32946;SDS011;54465;51.230;22.504;2023-09-19T17:56:53;32.15;;;18.77;;
32946;SDS011;54465;51.230;22.504;2023-09-19T18:01:54;26.15;;;16.25;;
32946;SDS011;54465;51.230;22.504;2023-09-19T18:06:55;22.70;;;14.50;;
32946;SDS011;54465;51.230;22.504;2023-09-19T18:11:55;16.65;;;11.48;;
32946;SDS011;54465;51.230;22.504;2023-09-19T18:16:57;14.85;;;11.98;;
32946;SDS011;54465;51.230;22.504;2023-09-19T18:21:58;14.25;;;9.98;;
32946;SDS011;54465;51.230;22.504;2023-09-19T18:27:03;15.48;;;10.93;;
32946;SDS011;54465;51.230;22.504;2023-09-19T18:32:04;16.50;;;11.23;;
32946;SDS011;54465;51.230;22.504;2023-09-19T18:37:05;19.08;;;12.57;;
32946;SDS011;54465;51.230;22.504;2023-09-19T18:42:05;26.55;;;14.25;;
32946;SDS011;54465;51.230;22.504;2023-09-19T18:47:06;23.65;;;15.05;;
32946;SDS011;54465;51.230;22.504;2023-09-19T18:52:06;23.35;;;14.30;;
32946;SDS011;54465;51.230;22.504;2023-09-19T18:57:08;15.35;;;12.13;;
32946;SDS011;54465;51.230;22.504;2023-09-19T19:02:08;14.43;;;11.25;;
32946;SDS011;54465;51.230;22.504;2023-09-19T19:07:10;14.40;;;12.18;;
32946;SDS011;54465;51.230;22.504;2023-09-19T19:12:16;15.25;;;10.88;;
32946;SDS011;54465;51.230;22.504;2023-09-19T19:17:16;12.88;;;11.13;;
32946;SDS011;54465;51.230;22.504;2023-09-19T19:22:17;12.23;;;10.02;;
32946;SDS011;54465;51.230;22.504;2023-09-19T19:27:20;12.15;;;9.63;;
32946;SDS011;54465;51.230;22.504;2023-09-19T19:32:20;13.43;;;9.68;;
32946;SDS011;54465;51.230;22.504;2023-09-19T19:37:25;13.73;;;8.95;;
32946;SDS011;54465;51.230;22.504;2023-09-19T19:42:26;10.00;;;8.55;;
32946;SDS011;54465;51.230;22.504;2023-09-19T19:47:29;9.52;;;8.45;;
32946;SDS011;54465;51.230;22.504;2023-09-19T19:52:30;9.82;;;7.95;;
32946;SDS011;54465;51.230;22.504;2023-09-19T19:57:33;11.25;;;7.63;;
32946;SDS011;54465;51.230;22.504;2023-09-19T20:02:35;11.48;;;7.90;;
32946;SDS011;54465;51.230;22.504;2023-09-19T20:07:35;8.35;;;7.45;;
32946;SDS011;54465;51.230;22.504;2023-09-19T20:12:36;8.88;;;7.97;;
32946;SDS011;54465;51.230;22.504;2023-09-19T20:17:37;8.23;;;7.38;;
32946;SDS011;54465;51.230;22.504;2023-09-19T20:22:38;10.48;;;7.68;;
32946;SDS011;54465;51.230;22.504;2023-09-19T20:27:39;9.65;;;7.80;;
32946;SDS011;54465;51.230;22.504;2023-09-19T20:32:40;9.43;;;7.85;;
32946;SDS011;54465;51.230;22.504;2023-09-19T20:37:40;9.25;;;7.60;;
32946;SDS011;54465;51.230;22.504;2023-09-19T20:42:41;10.93;;;7.68;;
32946;SDS011;54465;51.230;22.504;2023-09-19T20:47:42;8.60;;;6.95;;
32946;SDS011;54465;51.230;22.504;2023-09-19T20:52:44;12.05;;;8.05;;
32946;SDS011;54465;51.230;22.504;2023-09-19T20:57:44;9.77;;;7.22;;
32946;SDS011;54465;51.230;22.504;2023-09-19T21:02:46;10.48;;;7.93;;
32946;SDS011;54465;51.230;22.504;2023-09-19T21:07:47;8.30;;;7.50;;
32946;SDS011;54465;51.230;22.504;2023-09-19T21:12:48;8.93;;;7.95;;
32946;SDS011;54465;51.230;22.504;2023-09-19T21:17:48;8.55;;;7.75;;
32946;SDS011;54465;51.230;22.504;2023-09-19T21:22:50;12.02;;;7.95;;
32946;SDS011;54465;51.230;22.504;2023-09-19T21:27:50;9.45;;;7.55;;
32946;SDS011;54465;51.230;22.504;2023-09-19T21:32:51;10.23;;;7.72;;
32946;SDS011;54465;51.230;22.504;2023-09-19T21:37:51;12.18;;;7.68;;
32946;SDS011;54465;51.230;22.504;2023-09-19T21:42:52;7.63;;;6.82;;
32946;SDS011;54465;51.230;22.504;2023-09-19T21:47:52;9.75;;;7.10;;
32946;SDS011;54465;51.230;22.504;2023-09-19T21:52:53;7.90;;;7.10;;
32946;SDS011;54465;51.230;22.504;2023-09-19T21:57:53;7.80;;;7.10;;
32946;SDS011;54465;51.230;22.504;2023-09-19T22:02:55;11.32;;;7.45;;
32946;SDS011;54465;51.230;22.504;2023-09-19T22:07:55;8.73;;;7.13;;
32946;SDS011;54465;51.230;22.504;2023-09-19T22:12:56;7.05;;;6.35;;
32946;SDS011;54465;51.230;22.504;2023-09-19T22:17:59;8.40;;;6.80;;
32946;SDS011;54465;51.230;22.504;2023-09-19T22:23:00;8.85;;;6.13;;
32946;SDS011;54465;51.230;22.504;2023-09-19T22:28:00;6.82;;;5.95;;
32946;SDS011;54465;51.230;22.504;2023-09-19T22:33:02;9.88;;;6.90;;
32946;SDS011;54465;51.230;22.504;2023-09-19T22:38:03;7.85;;;6.50;;
32946;SDS011;54465;51.230;22.504;2023-09-19T22:43:04;6.95;;;6.13;;
32946;SDS011;54465;51.230;22.504;2023-09-19T22:48:07;7.25;;;5.47;;
32946;SDS011;54465;51.230;22.504;2023-09-19T22:53:09;7.40;;;6.07;;
32946;SDS011;54465;51.230;22.504;2023-09-19T22:58:14;8.77;;;6.63;;
32946;SDS011;54465;51.230;22.504;2023-09-19T23:03:15;7.88;;;6.25;;
32946;SDS011;54465;51.230;22.504;2023-09-19T23:08:16;8.73;;;6.05;;
32946;SDS011;54465;51.230;22.504;2023-09-19T23:13:17;9.43;;;5.97;;
32946;SDS011;54465;51.230;22.504;2023-09-19T23:18:33;7.45;;;6.07;;
32946;SDS011;54465;51.230;22.504;2023-09-19T23:23:36;8.30;;;6.22;;
32946;SDS011;54465;51.230;22.504;2023-09-19T23:28:39;7.20;;;5.50;;
32946;SDS011;54465;51.230;22.504;2023-09-19T23:33:48;6.72;;;6.03;;
32946;SDS011;54465;51.230;22.504;2023-09-19T23:38:50;8.68;;;5.53;;
32946;SDS011;54465;51.230;22.504;2023-09-19T23:43:51;6.50;;;5.80;;
32946;SDS011;54465;51.230;22.504;2023-09-19T23:48:53;6.45;;;5.75;;
32946;SDS011;54465;51.230;22.504;2023-09-19T23:53:54;7.95;;;5.35;;
32946;SDS011;54465;51.230;22.504;2023-09-19T23:58:54;8.00;;;5.90;;
